Terminal Aerodrome Forecast
Issued by NWS

Home | Current Version | Previous Version | Text Only | Print | Product List | Glossary On
Versions: 1 2 3 4 5 6 7 8 9 10 11 12 13 14 15 16 17 18 19 20 21 22 23 24 25 26 27 28
000
FTAK31 PANC 272006 AAA
TAFAGK
TAF AMD
PAGK 272006Z 2720/2818 VRB03KT P6SM FEW008 OVC015
      TEMPO 2720/2722 BKN008
     FM272200 36005KT P6SM SCT015 BKN200
     FM280400 VRB03KT P6SM OVC015=

USA.gov is the U.S. government's official web portal to all federal, state and local government web resources and services.